Check out our new PWSWeather beta!
PWSweather.com
Personal Weather Stations
Station Observations
IMAZOWIE6
WarszawaPL

WarszawaPL

Lat: 52.27957, Lon: 21.05489

Elevation: 100

Station Type: WS1080

http://stacjapogody.waw.pl/

High Low Average
Temperature 36.5°F2.5°C 33.3°F0.7°C 35.6°F2.0°C
Dew Point -169.2°F-111.8°C -169.5°F-111.9°C -169.2°F-111.8°C
Winds Calm Calm Calm Calm Calm NCalm N
Wind Gusts -- -- --
Humidity - - -
Pressure 31.62 in1070.8 mb 31.20 in1056.6 mb -
Precipitation 0.00 in0.0 mm - -
Hour Temp Dew Point Humidity Winds Wind Gusts Pressure Precip Precip Rate Daily Precip Total
12:03 AM 36.0°F2.2°C -169.2°F-111.8°C - Calm Calm -- 31.23 in1057.6 mb 0.00 in0.0 mm 0.00 in0.0 mm 0.00 in0.0 mm
12:18 AM 36.1°F2.3°C -169.2°F-111.8°C - Calm Calm -- 31.25 in1058.2 mb 0.00 in0.0 mm 0.00 in0.0 mm 0.00 in0.0 mm
12:33 AM 36.1°F2.3°C -169.2°F-111.8°C - Calm Calm -- 31.26 in1058.6 mb 0.00 in0.0 mm 0.00 in0.0 mm 0.00 in0.0 mm
12:48 AM 36.1°F2.3°C -169.2°F-111.8°C - Calm Calm -- 31.28 in1059.3 mb 0.00 in0.0 mm 0.00 in0.0 mm 0.00 in0.0 mm
01:03 AM 36.1°F2.3°C -169.2°F-111.8°C - Calm Calm -- 31.28 in1059.3 mb 0.00 in0.0 mm 0.00 in0.0 mm 0.00 in0.0 mm
01:18 AM 36.3°F2.4°C -169.2°F-111.8°C - Calm Calm -- 31.31 in1060.3 mb 0.00 in0.0 mm 0.00 in0.0 mm 0.00 in0.0 mm
01:33 AM 36.5°F2.5°C -169.2°F-111.8°C - Calm Calm -- 31.32 in1060.6 mb 0.00 in0.0 mm 0.00 in0.0 mm 0.00 in0.0 mm
01:48 AM 36.5°F2.5°C -169.2°F-111.8°C - Calm Calm -- 31.32 in1060.6 mb 0.00 in0.0 mm 0.00 in0.0 mm 0.00 in0.0 mm
02:01 AM 36.5°F2.5°C -169.2°F-111.8°C - Calm Calm -- 31.32 in1060.6 mb 0.00 in0.0 mm 0.00 in0.0 mm 0.00 in0.0 mm
02:18 AM 36.5°F2.5°C -169.2°F-111.8°C - Calm Calm -- 31.35 in1061.6 mb 0.00 in0.0 mm 0.00 in0.0 mm 0.00 in0.0 mm
02:33 AM 36.5°F2.5°C -169.2°F-111.8°C - Calm Calm -- 31.35 in1061.6 mb 0.00 in0.0 mm 0.00 in0.0 mm 0.00 in0.0 mm
02:48 AM 36.5°F2.5°C -169.2°F-111.8°C - Calm Calm -- 31.35 in1061.6 mb 0.00 in0.0 mm 0.00 in0.0 mm 0.00 in0.0 mm
03:00 AM 36.5°F2.5°C -169.2°F-111.8°C - Calm Calm -- 31.35 in1061.6 mb 0.00 in0.0 mm 0.00 in0.0 mm 0.00 in0.0 mm
03:15 AM 36.5°F2.5°C -169.2°F-111.8°C - Calm Calm -- 31.35 in1061.6 mb 0.00 in0.0 mm 0.00 in0.0 mm 0.00 in0.0 mm
03:31 AM 36.5°F2.5°C -169.2°F-111.8°C - Calm Calm -- 31.35 in1061.6 mb 0.00 in0.0 mm 0.00 in0.0 mm 0.00 in0.0 mm
03:48 AM 36.5°F2.5°C -169.2°F-111.8°C - Calm Calm -- 31.35 in1061.6 mb 0.00 in0.0 mm 0.00 in0.0 mm 0.00 in0.0 mm
04:03 AM 36.0°F2.2°C -169.2°F-111.8°C - Calm Calm -- 31.41 in1063.7 mb 0.00 in0.0 mm 0.00 in0.0 mm 0.00 in0.0 mm
04:17 AM 36.0°F2.2°C -169.2°F-111.8°C - Calm Calm -- 31.41 in1063.7 mb 0.00 in0.0 mm 0.00 in0.0 mm 0.00 in0.0 mm
04:30 AM 36.0°F2.2°C -169.2°F-111.8°C - Calm Calm -- 31.41 in1063.7 mb 0.00 in0.0 mm 0.00 in0.0 mm 0.00 in0.0 mm
04:48 AM 35.8°F2.1°C -169.2°F-111.8°C - Calm Calm -- 31.44 in1064.7 mb 0.00 in0.0 mm 0.00 in0.0 mm 0.00 in0.0 mm
05:03 AM 35.8°F2.1°C -169.2°F-111.8°C - Calm Calm -- 31.44 in1064.7 mb 0.00 in0.0 mm 0.00 in0.0 mm 0.00 in0.0 mm
05:18 AM 35.8°F2.1°C -169.2°F-111.8°C - Calm Calm -- 31.44 in1064.7 mb 0.00 in0.0 mm 0.00 in0.0 mm 0.00 in0.0 mm
05:30 AM 35.8°F2.1°C -169.2°F-111.8°C - Calm Calm -- 31.44 in1064.7 mb 0.00 in0.0 mm 0.00 in0.0 mm 0.00 in0.0 mm
05:48 AM 35.8°F2.1°C -169.2°F-111.8°C - Calm Calm -- 31.44 in1064.7 mb 0.00 in0.0 mm 0.00 in0.0 mm 0.00 in0.0 mm
06:03 AM 35.6°F2.0°C -169.2°F-111.8°C - Calm Calm -- 31.42 in1064.0 mb 0.00 in0.0 mm 0.00 in0.0 mm 0.00 in0.0 mm
06:15 AM 35.6°F2.0°C -169.2°F-111.8°C - Calm Calm -- 31.42 in1064.0 mb 0.00 in0.0 mm 0.00 in0.0 mm 0.00 in0.0 mm
06:33 AM 35.6°F2.0°C -169.2°F-111.8°C - Calm Calm -- 31.41 in1063.7 mb 0.00 in0.0 mm 0.00 in0.0 mm 0.00 in0.0 mm
06:48 AM 35.2°F1.8°C -169.3°F-111.8°C - Calm Calm -- 31.41 in1063.7 mb 0.00 in0.0 mm 0.00 in0.0 mm 0.00 in0.0 mm
07:01 AM 35.2°F1.8°C -169.3°F-111.8°C - Calm Calm -- 31.41 in1063.7 mb 0.00 in0.0 mm 0.00 in0.0 mm 0.00 in0.0 mm
07:17 AM 35.2°F1.8°C -169.3°F-111.8°C - Calm Calm -- 31.41 in1063.7 mb 0.00 in0.0 mm 0.00 in0.0 mm 0.00 in0.0 mm
07:33 AM 35.2°F1.8°C -169.3°F-111.8°C - Calm Calm -- 31.40 in1063.3 mb 0.00 in0.0 mm 0.00 in0.0 mm 0.00 in0.0 mm
07:48 AM 35.4°F1.9°C -169.3°F-111.8°C - Calm Calm -- 31.39 in1063.0 mb 0.00 in0.0 mm 0.00 in0.0 mm 0.00 in0.0 mm
08:03 AM 35.2°F1.8°C -169.3°F-111.8°C - Calm Calm -- 31.39 in1063.0 mb 0.00 in0.0 mm 0.00 in0.0 mm 0.00 in0.0 mm
08:18 AM 35.1°F1.7°C -169.3°F-111.8°C - Calm Calm -- 31.39 in1063.0 mb 0.00 in0.0 mm 0.00 in0.0 mm 0.00 in0.0 mm
08:33 AM 34.7°F1.5°C -169.3°F-111.8°C - Calm Calm -- 31.38 in1062.6 mb 0.00 in0.0 mm 0.00 in0.0 mm 0.00 in0.0 mm
08:48 AM 34.7°F1.5°C -169.3°F-111.8°C - Calm Calm -- 31.38 in1062.6 mb 0.01 in0.3 mm 0.05 in1.3 mm 0.01 in0.3 mm
09:03 AM 34.9°F1.6°C -169.3°F-111.8°C - Calm Calm -- 31.38 in1062.6 mb 0.01 in0.3 mm 0.00 in0.0 mm 0.01 in0.3 mm
09:18 AM 34.5°F1.4°C -169.3°F-111.8°C - Calm Calm -- 31.37 in1062.3 mb 0.00 in0.0 mm 0.00 in0.0 mm 0.01 in0.3 mm
09:33 AM 34.5°F1.4°C -169.3°F-111.8°C - Calm Calm -- 31.36 in1062.0 mb 0.00 in0.0 mm 0.00 in0.0 mm 0.01 in0.3 mm
09:48 AM 34.3°F1.3°C -169.4°F-111.9°C - Calm Calm -- 31.32 in1060.6 mb 0.00 in0.0 mm 0.00 in0.0 mm 0.01 in0.3 mm
10:03 AM 34.5°F1.4°C -169.3°F-111.8°C - Calm Calm -- 31.30 in1059.9 mb 0.00 in0.0 mm 0.00 in0.0 mm 0.01 in0.3 mm
10:18 AM 34.5°F1.4°C -169.3°F-111.8°C - Calm Calm -- 31.28 in1059.3 mb 0.00 in0.0 mm 0.00 in0.0 mm 0.01 in0.3 mm
10:33 AM 34.5°F1.4°C -169.3°F-111.8°C - Calm Calm -- 31.26 in1058.6 mb 0.00 in0.0 mm 0.00 in0.0 mm 0.01 in0.3 mm
10:48 AM 34.7°F1.5°C -169.3°F-111.8°C - Calm Calm -- 31.25 in1058.2 mb 0.00 in0.0 mm 0.00 in0.0 mm 0.01 in0.3 mm
11:03 AM 34.9°F1.6°C -169.3°F-111.8°C - Calm Calm -- 31.23 in1057.6 mb 0.00 in0.0 mm 0.00 in0.0 mm 0.01 in0.3 mm
11:18 AM 34.9°F1.6°C -169.3°F-111.8°C - Calm Calm -- 31.23 in1057.6 mb 0.02 in0.5 mm 0.10 in2.5 mm 0.04 in1.0 mm
11:33 AM 35.4°F1.9°C -169.3°F-111.8°C - Calm Calm -- 31.23 in1057.6 mb 0.02 in0.5 mm 0.00 in0.0 mm 0.04 in1.0 mm
11:48 AM 35.2°F1.8°C -169.3°F-111.8°C - Calm Calm -- 31.22 in1057.2 mb 0.04 in1.0 mm 0.05 in1.3 mm 0.05 in1.3 mm
12:03 PM 35.4°F1.9°C -169.3°F-111.8°C - Calm Calm -- 31.22 in1057.2 mb 0.05 in1.3 mm 0.02 in0.5 mm 0.06 in1.5 mm
12:18 PM 35.4°F1.9°C -169.3°F-111.8°C - Calm Calm -- 31.22 in1057.2 mb 0.00 in0.0 mm 0.00 in0.0 mm 0.06 in1.5 mm
12:33 PM 35.6°F2.0°C -169.2°F-111.8°C - Calm Calm -- 31.21 in1056.9 mb 0.01 in0.3 mm 0.05 in1.3 mm 0.07 in1.8 mm
12:48 PM 35.8°F2.1°C -169.2°F-111.8°C - Calm Calm -- 31.21 in1056.9 mb 0.01 in0.3 mm 0.00 in0.0 mm 0.07 in1.8 mm
01:03 PM 35.8°F2.1°C -169.2°F-111.8°C - Calm Calm -- 31.20 in1056.6 mb 0.01 in0.3 mm 0.00 in0.0 mm 0.07 in1.8 mm
01:18 PM 36.0°F2.2°C -169.2°F-111.8°C - Calm Calm -- 31.20 in1056.6 mb 0.00 in0.0 mm 0.00 in0.0 mm 0.07 in1.8 mm
01:33 PM 36.0°F2.2°C -169.2°F-111.8°C - Calm Calm -- 31.21 in1056.9 mb 0.00 in0.0 mm 0.00 in0.0 mm 0.07 in1.8 mm
01:48 PM 36.1°F2.3°C -169.2°F-111.8°C - Calm Calm -- 31.21 in1056.9 mb 0.00 in0.0 mm 0.00 in0.0 mm 0.07 in1.8 mm
02:03 PM 36.1°F2.3°C -169.2°F-111.8°C - Calm Calm -- 31.21 in1056.9 mb 0.00 in0.0 mm 0.00 in0.0 mm 0.07 in1.8 mm
02:18 PM 36.1°F2.3°C -169.2°F-111.8°C - Calm Calm -- 31.23 in1057.6 mb 0.00 in0.0 mm 0.00 in0.0 mm 0.07 in1.8 mm
02:33 PM 36.1°F2.3°C -169.2°F-111.8°C - Calm Calm -- 31.24 in1057.9 mb 0.00 in0.0 mm 0.00 in0.0 mm 0.07 in1.8 mm
02:48 PM 36.3°F2.4°C -169.2°F-111.8°C - Calm Calm -- 31.26 in1058.6 mb 0.00 in0.0 mm 0.00 in0.0 mm 0.07 in1.8 mm
03:03 PM 36.1°F2.3°C -169.2°F-111.8°C - Calm Calm -- 31.27 in1058.9 mb 0.00 in0.0 mm 0.00 in0.0 mm 0.07 in1.8 mm
03:18 PM 36.3°F2.4°C -169.2°F-111.8°C - Calm Calm -- 31.28 in1059.3 mb 0.01 in0.3 mm 0.05 in1.3 mm 0.09 in2.3 mm
03:33 PM 36.3°F2.4°C -169.2°F-111.8°C - Calm Calm -- 31.29 in1059.6 mb 0.01 in0.3 mm 0.00 in0.0 mm 0.09 in2.3 mm
03:48 PM 36.1°F2.3°C -169.2°F-111.8°C - Calm Calm -- 31.30 in1059.9 mb 0.01 in0.3 mm 0.00 in0.0 mm 0.09 in2.3 mm
04:03 PM 36.1°F2.3°C -169.2°F-111.8°C - Calm Calm -- 31.31 in1060.3 mb 0.01 in0.3 mm 0.00 in0.0 mm 0.09 in2.3 mm
04:18 PM 36.0°F2.2°C -169.2°F-111.8°C - Calm Calm -- 31.31 in1060.3 mb 0.00 in0.0 mm 0.00 in0.0 mm 0.09 in2.3 mm
04:33 PM 36.0°F2.2°C -169.2°F-111.8°C - Calm Calm -- 31.33 in1061.0 mb 0.00 in0.0 mm 0.00 in0.0 mm 0.09 in2.3 mm
04:48 PM 36.0°F2.2°C -169.2°F-111.8°C - Calm Calm -- 31.35 in1061.6 mb 0.01 in0.3 mm 0.05 in1.3 mm 0.10 in2.5 mm
05:03 PM 36.0°F2.2°C -169.2°F-111.8°C - Calm Calm -- 31.35 in1061.6 mb 0.01 in0.3 mm 0.00 in0.0 mm 0.10 in2.5 mm
05:18 PM 35.8°F2.1°C -169.2°F-111.8°C - Calm Calm -- 31.36 in1062.0 mb 0.00 in0.0 mm 0.00 in0.0 mm 0.10 in2.5 mm
05:33 PM 35.8°F2.1°C -169.2°F-111.8°C - Calm Calm -- 31.37 in1062.3 mb 0.00 in0.0 mm 0.00 in0.0 mm 0.10 in2.5 mm
05:48 PM 35.8°F2.1°C -169.2°F-111.8°C - Calm Calm -- 31.39 in1063.0 mb 0.00 in0.0 mm 0.00 in0.0 mm 0.10 in2.5 mm
06:03 PM 35.8°F2.1°C -169.2°F-111.8°C - Calm Calm -- 31.41 in1063.7 mb 0.00 in0.0 mm 0.00 in0.0 mm 0.10 in2.5 mm
06:18 PM 35.8°F2.1°C -169.2°F-111.8°C - Calm Calm -- 31.41 in1063.7 mb 0.00 in0.0 mm 0.00 in0.0 mm 0.10 in2.5 mm
06:33 PM 35.8°F2.1°C -169.2°F-111.8°C - Calm Calm -- 31.44 in1064.7 mb 0.00 in0.0 mm 0.00 in0.0 mm 0.10 in2.5 mm
06:48 PM 35.6°F2.0°C -169.2°F-111.8°C - Calm Calm -- 31.45 in1065.0 mb 0.00 in0.0 mm 0.00 in0.0 mm 0.10 in2.5 mm
07:03 PM 35.4°F1.9°C -169.3°F-111.8°C - Calm Calm -- 31.47 in1065.7 mb 0.00 in0.0 mm 0.00 in0.0 mm 0.10 in2.5 mm
07:18 PM 35.4°F1.9°C -169.3°F-111.8°C - Calm Calm -- 31.50 in1066.7 mb 0.00 in0.0 mm 0.00 in0.0 mm 0.10 in2.5 mm
07:33 PM 35.6°F2.0°C -169.2°F-111.8°C - Calm Calm -- 31.51 in1067.1 mb 0.00 in0.0 mm 0.00 in0.0 mm 0.10 in2.5 mm
07:48 PM 35.6°F2.0°C -169.2°F-111.8°C - Calm Calm -- 31.53 in1067.7 mb 0.00 in0.0 mm 0.00 in0.0 mm 0.10 in2.5 mm
08:03 PM 35.6°F2.0°C -169.2°F-111.8°C - Calm Calm -- 31.54 in1068.1 mb 0.00 in0.0 mm 0.00 in0.0 mm 0.10 in2.5 mm
08:18 PM 35.8°F2.1°C -169.2°F-111.8°C - Calm Calm -- 31.54 in1068.1 mb 0.00 in0.0 mm 0.00 in0.0 mm 0.10 in2.5 mm
08:33 PM 35.6°F2.0°C -169.2°F-111.8°C - Calm Calm -- 31.56 in1068.7 mb 0.00 in0.0 mm 0.00 in0.0 mm 0.10 in2.5 mm
08:48 PM 35.8°F2.1°C -169.2°F-111.8°C - Calm Calm -- 31.58 in1069.4 mb 0.00 in0.0 mm 0.00 in0.0 mm 0.10 in2.5 mm
09:03 PM 35.8°F2.1°C -169.2°F-111.8°C - Calm Calm -- 31.59 in1069.8 mb 0.00 in0.0 mm 0.00 in0.0 mm 0.10 in2.5 mm
09:18 PM 36.0°F2.2°C -169.2°F-111.8°C - Calm Calm -- 31.60 in1070.1 mb 0.00 in0.0 mm 0.00 in0.0 mm 0.10 in2.5 mm
09:33 PM 36.0°F2.2°C -169.2°F-111.8°C - Calm Calm -- 31.62 in1070.8 mb 0.00 in0.0 mm 0.00 in0.0 mm 0.10 in2.5 mm
09:48 PM 36.1°F2.3°C -169.2°F-111.8°C - Calm Calm -- 31.62 in1070.8 mb 0.00 in0.0 mm 0.00 in0.0 mm 0.10 in2.5 mm
10:03 PM 35.8°F2.1°C -169.2°F-111.8°C - Calm Calm -- 31.62 in1070.8 mb 0.00 in0.0 mm 0.00 in0.0 mm 0.10 in2.5 mm
10:18 PM 35.4°F1.9°C -169.3°F-111.8°C - Calm Calm -- 31.62 in1070.8 mb 0.00 in0.0 mm 0.00 in0.0 mm 0.10 in2.5 mm
10:33 PM 34.9°F1.6°C -169.3°F-111.8°C - Calm Calm -- 31.60 in1070.1 mb 0.00 in0.0 mm 0.00 in0.0 mm 0.10 in2.5 mm
10:48 PM 34.7°F1.5°C -169.3°F-111.8°C - Calm Calm -- 31.59 in1069.8 mb 0.00 in0.0 mm 0.00 in0.0 mm 0.10 in2.5 mm
11:03 PM 34.3°F1.3°C -169.4°F-111.9°C - Calm Calm -- 31.57 in1069.1 mb 0.00 in0.0 mm 0.00 in0.0 mm 0.10 in2.5 mm
11:18 PM 34.0°F1.1°C -169.4°F-111.9°C - Calm Calm -- 31.57 in1069.1 mb 0.00 in0.0 mm 0.00 in0.0 mm 0.10 in2.5 mm
11:33 PM 33.6°F0.9°C -169.4°F-111.9°C - Calm Calm -- 31.59 in1069.8 mb 0.00 in0.0 mm 0.00 in0.0 mm 0.10 in2.5 mm
11:48 PM 33.3°F0.7°C -169.5°F-111.9°C - Calm Calm -- 31.62 in1070.8 mb 0.00 in0.0 mm 0.00 in0.0 mm 0.10 in2.5 mm